sensor_id;sensor_type;location;lat;lon;timestamp;P1;durP1;ratioP1;P2;durP2;ratioP2
12625;SDS011;6378;42.684;23.372;2023-03-13T00:00:51;8.07;;;6.73;;
12625;SDS011;6378;42.684;23.372;2023-03-13T00:03:19;8.90;;;6.90;;
12625;SDS011;6378;42.684;23.372;2023-03-13T00:05:44;8.50;;;7.10;;
12625;SDS011;6378;42.684;23.372;2023-03-13T00:08:09;9.00;;;6.70;;
12625;SDS011;6378;42.684;23.372;2023-03-13T00:10:36;9.43;;;6.77;;
12625;SDS011;6378;42.684;23.372;2023-03-13T00:13:02;9.33;;;7.20;;
12625;SDS011;6378;42.684;23.372;2023-03-13T00:15:28;8.60;;;7.10;;
12625;SDS011;6378;42.684;23.372;2023-03-13T00:17:53;8.47;;;6.20;;
12625;SDS011;6378;42.684;23.372;2023-03-13T00:20:18;8.13;;;7.07;;
12625;SDS011;6378;42.684;23.372;2023-03-13T00:22:44;8.30;;;6.40;;
12625;SDS011;6378;42.684;23.372;2023-03-13T00:25:09;9.23;;;6.70;;
12625;SDS011;6378;42.684;23.372;2023-03-13T00:27:35;8.53;;;6.90;;
12625;SDS011;6378;42.684;23.372;2023-03-13T00:30:00;9.67;;;6.30;;
12625;SDS011;6378;42.684;23.372;2023-03-13T00:32:25;7.07;;;6.20;;
12625;SDS011;6378;42.684;23.372;2023-03-13T00:34:51;9.50;;;6.53;;
12625;SDS011;6378;42.684;23.372;2023-03-13T00:37:16;8.13;;;6.37;;
12625;SDS011;6378;42.684;23.372;2023-03-13T00:39:42;10.30;;;6.73;;
12625;SDS011;6378;42.684;23.372;2023-03-13T00:42:07;9.03;;;6.70;;
12625;SDS011;6378;42.684;23.372;2023-03-13T00:44:32;8.40;;;6.50;;
12625;SDS011;6378;42.684;23.372;2023-03-13T00:46:58;7.03;;;6.30;;
12625;SDS011;6378;42.684;23.372;2023-03-13T00:49:23;7.83;;;5.80;;
12625;SDS011;6378;42.684;23.372;2023-03-13T00:51:49;7.27;;;5.77;;
12625;SDS011;6378;42.684;23.372;2023-03-13T00:54:14;7.00;;;6.23;;
12625;SDS011;6378;42.684;23.372;2023-03-13T00:56:39;8.73;;;6.77;;
12625;SDS011;6378;42.684;23.372;2023-03-13T00:59:05;7.00;;;6.07;;
12625;SDS011;6378;42.684;23.372;2023-03-13T01:01:31;6.27;;;5.27;;
12625;SDS011;6378;42.684;23.372;2023-03-13T01:03:59;8.63;;;6.50;;
12625;SDS011;6378;42.684;23.372;2023-03-13T01:06:28;8.57;;;6.57;;
12625;SDS011;6378;42.684;23.372;2023-03-13T01:08:55;7.87;;;6.23;;
12625;SDS011;6378;42.684;23.372;2023-03-13T01:11:21;7.87;;;6.03;;
12625;SDS011;6378;42.684;23.372;2023-03-13T01:13:49;8.57;;;6.87;;
12625;SDS011;6378;42.684;23.372;2023-03-13T01:16:22;8.43;;;7.07;;
12625;SDS011;6378;42.684;23.372;2023-03-13T01:18:49;8.83;;;7.13;;
12625;SDS011;6378;42.684;23.372;2023-03-13T01:21:16;8.47;;;5.93;;
12625;SDS011;6378;42.684;23.372;2023-03-13T01:23:46;9.40;;;6.67;;
12625;SDS011;6378;42.684;23.372;2023-03-13T01:26:12;7.63;;;6.50;;
12625;SDS011;6378;42.684;23.372;2023-03-13T01:28:38;7.87;;;6.60;;
12625;SDS011;6378;42.684;23.372;2023-03-13T01:31:11;7.47;;;6.67;;
12625;SDS011;6378;42.684;23.372;2023-03-13T01:33:44;8.63;;;6.23;;
12625;SDS011;6378;42.684;23.372;2023-03-13T01:36:11;8.60;;;6.70;;
12625;SDS011;6378;42.684;23.372;2023-03-13T01:38:37;8.67;;;6.33;;
12625;SDS011;6378;42.684;23.372;2023-03-13T01:41:03;10.40;;;7.00;;
12625;SDS011;6378;42.684;23.372;2023-03-13T01:43:31;8.90;;;6.80;;
12625;SDS011;6378;42.684;23.372;2023-03-13T01:53:46;17.73;;;10.60;;
12625;SDS011;6378;42.684;23.372;2023-03-13T01:59:31;15.67;;;10.37;;
12625;SDS011;6378;42.684;23.372;2023-03-13T02:02:02;17.40;;;11.10;;
12625;SDS011;6378;42.684;23.372;2023-03-13T02:04:30;16.23;;;11.30;;
12625;SDS011;6378;42.684;23.372;2023-03-13T02:07:00;19.70;;;11.80;;
12625;SDS011;6378;42.684;23.372;2023-03-13T02:09:28;19.73;;;12.70;;
12625;SDS011;6378;42.684;23.372;2023-03-13T02:14:22;22.07;;;12.60;;
12625;SDS011;6378;42.684;23.372;2023-03-13T02:16:52;20.77;;;13.83;;
12625;SDS011;6378;42.684;23.372;2023-03-13T02:19:23;20.27;;;12.93;;
12625;SDS011;6378;42.684;23.372;2023-03-13T02:21:56;20.17;;;13.03;;
12625;SDS011;6378;42.684;23.372;2023-03-13T02:24:35;20.50;;;14.03;;
12625;SDS011;6378;42.684;23.372;2023-03-13T02:27:05;22.07;;;13.83;;
12625;SDS011;6378;42.684;23.372;2023-03-13T02:29:31;21.93;;;14.13;;
12625;SDS011;6378;42.684;23.372;2023-03-13T02:31:57;19.87;;;13.50;;
12625;SDS011;6378;42.684;23.372;2023-03-13T02:34:31;23.93;;;13.53;;
12625;SDS011;6378;42.684;23.372;2023-03-13T02:36:59;23.53;;;13.87;;
12625;SDS011;6378;42.684;23.372;2023-03-13T02:39:26;19.63;;;13.70;;
12625;SDS011;6378;42.684;23.372;2023-03-13T02:41:54;21.87;;;13.43;;
12625;SDS011;6378;42.684;23.372;2023-03-13T02:44:20;22.57;;;13.63;;
12625;SDS011;6378;42.684;23.372;2023-03-13T02:46:47;22.07;;;13.97;;
12625;SDS011;6378;42.684;23.372;2023-03-13T02:49:24;24.50;;;16.37;;
12625;SDS011;6378;42.684;23.372;2023-03-13T02:51:52;30.27;;;18.20;;
12625;SDS011;6378;42.684;23.372;2023-03-13T02:54:25;26.43;;;16.80;;
12625;SDS011;6378;42.684;23.372;2023-03-13T02:56:55;24.03;;;16.77;;
12625;SDS011;6378;42.684;23.372;2023-03-13T02:59:23;30.23;;;17.40;;
12625;SDS011;6378;42.684;23.372;2023-03-13T03:01:49;27.90;;;16.93;;
12625;SDS011;6378;42.684;23.372;2023-03-13T03:04:16;22.40;;;14.53;;
12625;SDS011;6378;42.684;23.372;2023-03-13T03:06:44;20.53;;;14.43;;
12625;SDS011;6378;42.684;23.372;2023-03-13T03:09:09;19.80;;;14.47;;
12625;SDS011;6378;42.684;23.372;2023-03-13T03:11:34;18.90;;;13.77;;
12625;SDS011;6378;42.684;23.372;2023-03-13T03:14:00;20.80;;;14.10;;
12625;SDS011;6378;42.684;23.372;2023-03-13T03:16:26;22.13;;;14.63;;
12625;SDS011;6378;42.684;23.372;2023-03-13T03:18:51;24.93;;;14.40;;
12625;SDS011;6378;42.684;23.372;2023-03-13T03:21:16;19.67;;;13.00;;
12625;SDS011;6378;42.684;23.372;2023-03-13T03:23:42;20.30;;;13.47;;
12625;SDS011;6378;42.684;23.372;2023-03-13T03:26:07;25.23;;;13.57;;
12625;SDS011;6378;42.684;23.372;2023-03-13T03:28:33;23.73;;;13.87;;
12625;SDS011;6378;42.684;23.372;2023-03-13T03:31:06;23.00;;;13.97;;
12625;SDS011;6378;42.684;23.372;2023-03-13T03:33:33;26.00;;;15.23;;
12625;SDS011;6378;42.684;23.372;2023-03-13T03:35:59;26.97;;;15.63;;
12625;SDS011;6378;42.684;23.372;2023-03-13T03:38:26;25.77;;;16.47;;
12625;SDS011;6378;42.684;23.372;2023-03-13T03:40:51;27.17;;;17.03;;
12625;SDS011;6378;42.684;23.372;2023-03-13T03:43:17;27.60;;;16.80;;
12625;SDS011;6378;42.684;23.372;2023-03-13T03:45:42;26.17;;;16.23;;
12625;SDS011;6378;42.684;23.372;2023-03-13T03:48:07;23.90;;;15.53;;
12625;SDS011;6378;42.684;23.372;2023-03-13T03:50:33;22.47;;;14.93;;
12625;SDS011;6378;42.684;23.372;2023-03-13T03:52:58;20.73;;;14.20;;
12625;SDS011;6378;42.684;23.372;2023-03-13T03:55:23;16.37;;;11.80;;
12625;SDS011;6378;42.684;23.372;2023-03-13T03:57:49;27.20;;;15.37;;
12625;SDS011;6378;42.684;23.372;2023-03-13T04:00:14;23.63;;;14.80;;
12625;SDS011;6378;42.684;23.372;2023-03-13T04:02:42;21.93;;;13.33;;
12625;SDS011;6378;42.684;23.372;2023-03-13T04:05:08;19.80;;;12.97;;
12625;SDS011;6378;42.684;23.372;2023-03-13T04:07:33;16.10;;;12.10;;
12625;SDS011;6378;42.684;23.372;2023-03-13T04:09:59;17.53;;;12.10;;
12625;SDS011;6378;42.684;23.372;2023-03-13T04:12:24;15.33;;;12.00;;
12625;SDS011;6378;42.684;23.372;2023-03-13T04:14:49;22.90;;;14.00;;
12625;SDS011;6378;42.684;23.372;2023-03-13T04:17:15;19.80;;;13.27;;
12625;SDS011;6378;42.684;23.372;2023-03-13T04:19:40;17.40;;;12.73;;
12625;SDS011;6378;42.684;23.372;2023-03-13T04:22:06;20.57;;;13.40;;
12625;SDS011;6378;42.684;23.372;2023-03-13T04:24:31;18.77;;;12.57;;
12625;SDS011;6378;42.684;23.372;2023-03-13T04:26:57;19.50;;;13.27;;
12625;SDS011;6378;42.684;23.372;2023-03-13T04:29:23;16.73;;;12.57;;
12625;SDS011;6378;42.684;23.372;2023-03-13T04:31:48;19.43;;;12.57;;
12625;SDS011;6378;42.684;23.372;2023-03-13T04:34:14;20.03;;;12.60;;
12625;SDS011;6378;42.684;23.372;2023-03-13T04:36:39;17.83;;;12.53;;
12625;SDS011;6378;42.684;23.372;2023-03-13T04:39:04;17.27;;;12.23;;
12625;SDS011;6378;42.684;23.372;2023-03-13T04:41:30;16.63;;;11.97;;
12625;SDS011;6378;42.684;23.372;2023-03-13T04:43:55;18.00;;;11.67;;
12625;SDS011;6378;42.684;23.372;2023-03-13T04:46:22;13.87;;;9.97;;
12625;SDS011;6378;42.684;23.372;2023-03-13T04:48:47;14.43;;;10.37;;
12625;SDS011;6378;42.684;23.372;2023-03-13T04:51:12;12.53;;;9.73;;
12625;SDS011;6378;42.684;23.372;2023-03-13T04:53:38;15.13;;;10.17;;
12625;SDS011;6378;42.684;23.372;2023-03-13T04:56:03;19.60;;;12.30;;
12625;SDS011;6378;42.684;23.372;2023-03-13T04:58:29;16.70;;;11.57;;
12625;SDS011;6378;42.684;23.372;2023-03-13T05:00:54;15.13;;;10.87;;
12625;SDS011;6378;42.684;23.372;2023-03-13T05:03:21;17.80;;;11.00;;
12625;SDS011;6378;42.684;23.372;2023-03-13T05:05:47;18.50;;;10.40;;
12625;SDS011;6378;42.684;23.372;2023-03-13T05:08:12;16.60;;;11.77;;
12625;SDS011;6378;42.684;23.372;2023-03-13T05:10:38;16.47;;;10.17;;
12625;SDS011;6378;42.684;23.372;2023-03-13T05:13:03;15.87;;;9.53;;
12625;SDS011;6378;42.684;23.372;2023-03-13T05:15:28;13.30;;;10.17;;
12625;SDS011;6378;42.684;23.372;2023-03-13T05:17:54;13.27;;;9.33;;
12625;SDS011;6378;42.684;23.372;2023-03-13T05:20:19;12.70;;;9.10;;
12625;SDS011;6378;42.684;23.372;2023-03-13T05:22:45;18.20;;;11.93;;
12625;SDS011;6378;42.684;23.372;2023-03-13T05:25:10;16.80;;;10.93;;
12625;SDS011;6378;42.684;23.372;2023-03-13T05:27:36;14.20;;;10.63;;
12625;SDS011;6378;42.684;23.372;2023-03-13T05:30:01;23.43;;;11.33;;
12625;SDS011;6378;42.684;23.372;2023-03-13T05:32:26;16.87;;;11.47;;
12625;SDS011;6378;42.684;23.372;2023-03-13T05:34:52;17.67;;;12.07;;
12625;SDS011;6378;42.684;23.372;2023-03-13T05:37:17;14.10;;;12.03;;
12625;SDS011;6378;42.684;23.372;2023-03-13T05:39:43;14.93;;;11.23;;
12625;SDS011;6378;42.684;23.372;2023-03-13T05:42:08;17.93;;;12.93;;
12625;SDS011;6378;42.684;23.372;2023-03-13T05:44:34;19.53;;;13.13;;
12625;SDS011;6378;42.684;23.372;2023-03-13T05:46:59;21.67;;;12.50;;
12625;SDS011;6378;42.684;23.372;2023-03-13T05:49:24;23.27;;;13.10;;
12625;SDS011;6378;42.684;23.372;2023-03-13T05:51:50;19.77;;;14.07;;
12625;SDS011;6378;42.684;23.372;2023-03-13T05:54:15;20.13;;;14.80;;
12625;SDS011;6378;42.684;23.372;2023-03-13T05:56:41;21.10;;;15.70;;
12625;SDS011;6378;42.684;23.372;2023-03-13T05:59:06;24.43;;;17.17;;
12625;SDS011;6378;42.684;23.372;2023-03-13T06:01:32;27.53;;;18.70;;
12625;SDS011;6378;42.684;23.372;2023-03-13T06:03:57;27.43;;;18.03;;
12625;SDS011;6378;42.684;23.372;2023-03-13T06:06:23;19.90;;;16.73;;
12625;SDS011;6378;42.684;23.372;2023-03-13T06:08:50;26.07;;;17.80;;
12625;SDS011;6378;42.684;23.372;2023-03-13T06:11:17;20.13;;;16.33;;
12625;SDS011;6378;42.684;23.372;2023-03-13T06:13:42;23.27;;;17.13;;
12625;SDS011;6378;42.684;23.372;2023-03-13T06:16:08;29.77;;;17.43;;
12625;SDS011;6378;42.684;23.372;2023-03-13T06:18:34;24.20;;;17.93;;
12625;SDS011;6378;42.684;23.372;2023-03-13T06:21:00;21.77;;;16.63;;
12625;SDS011;6378;42.684;23.372;2023-03-13T06:23:26;23.63;;;17.10;;
12625;SDS011;6378;42.684;23.372;2023-03-13T06:25:52;21.00;;;15.73;;
12625;SDS011;6378;42.684;23.372;2023-03-13T06:28:18;18.87;;;15.07;;
12625;SDS011;6378;42.684;23.372;2023-03-13T06:30:44;19.57;;;13.70;;
12625;SDS011;6378;42.684;23.372;2023-03-13T06:33:09;19.67;;;13.93;;
12625;SDS011;6378;42.684;23.372;2023-03-13T06:35:37;18.53;;;13.83;;
12625;SDS011;6378;42.684;23.372;2023-03-13T06:38:04;17.27;;;12.67;;
12625;SDS011;6378;42.684;23.372;2023-03-13T06:40:29;24.60;;;13.63;;
12625;SDS011;6378;42.684;23.372;2023-03-13T06:42:54;24.47;;;16.93;;
12625;SDS011;6378;42.684;23.372;2023-03-13T06:45:20;21.50;;;15.73;;
12625;SDS011;6378;42.684;23.372;2023-03-13T06:47:45;27.87;;;18.20;;
12625;SDS011;6378;42.684;23.372;2023-03-13T06:50:10;22.87;;;16.93;;
12625;SDS011;6378;42.684;23.372;2023-03-13T06:55:11;21.87;;;16.47;;
12625;SDS011;6378;42.684;23.372;2023-03-13T06:57:37;22.23;;;15.90;;
12625;SDS011;6378;42.684;23.372;2023-03-13T07:00:02;22.53;;;16.17;;
12625;SDS011;6378;42.684;23.372;2023-03-13T07:02:30;30.27;;;15.63;;
12625;SDS011;6378;42.684;23.372;2023-03-13T07:04:56;17.97;;;14.53;;
12625;SDS011;6378;42.684;23.372;2023-03-13T07:07:21;23.33;;;14.70;;
12625;SDS011;6378;42.684;23.372;2023-03-13T07:09:47;18.00;;;13.73;;
12625;SDS011;6378;42.684;23.372;2023-03-13T07:12:13;16.87;;;14.37;;
12625;SDS011;6378;42.684;23.372;2023-03-13T07:14:38;19.13;;;13.67;;
12625;SDS011;6378;42.684;23.372;2023-03-13T07:17:04;20.27;;;14.50;;
12625;SDS011;6378;42.684;23.372;2023-03-13T07:19:29;15.73;;;13.00;;
12625;SDS011;6378;42.684;23.372;2023-03-13T07:21:54;17.67;;;14.30;;
12625;SDS011;6378;42.684;23.372;2023-03-13T07:24:21;21.33;;;13.53;;
12625;SDS011;6378;42.684;23.372;2023-03-13T07:26:46;19.47;;;13.23;;
12625;SDS011;6378;42.684;23.372;2023-03-13T07:29:12;17.93;;;12.93;;
12625;SDS011;6378;42.684;23.372;2023-03-13T07:31:37;23.37;;;14.30;;
12625;SDS011;6378;42.684;23.372;2023-03-13T07:34:03;25.60;;;13.83;;
12625;SDS011;6378;42.684;23.372;2023-03-13T07:36:29;21.97;;;13.00;;
12625;SDS011;6378;42.684;23.372;2023-03-13T07:38:54;14.37;;;10.40;;
12625;SDS011;6378;42.684;23.372;2023-03-13T07:41:20;15.17;;;12.00;;
12625;SDS011;6378;42.684;23.372;2023-03-13T07:43:46;16.03;;;11.23;;
12625;SDS011;6378;42.684;23.372;2023-03-13T07:46:13;13.80;;;11.30;;
12625;SDS011;6378;42.684;23.372;2023-03-13T07:48:42;19.13;;;11.57;;
12625;SDS011;6378;42.684;23.372;2023-03-13T07:51:16;17.97;;;12.03;;
12625;SDS011;6378;42.684;23.372;2023-03-13T07:53:43;15.87;;;11.70;;
12625;SDS011;6378;42.684;23.372;2023-03-13T07:56:11;15.67;;;12.23;;
12625;SDS011;6378;42.684;23.372;2023-03-13T07:58:39;18.30;;;12.57;;
12625;SDS011;6378;42.684;23.372;2023-03-13T08:01:09;17.10;;;11.90;;
12625;SDS011;6378;42.684;23.372;2023-03-13T08:03:45;18.50;;;12.73;;
12625;SDS011;6378;42.684;23.372;2023-03-13T08:06:30;15.40;;;12.33;;
12625;SDS011;6378;42.684;23.372;2023-03-13T08:08:59;19.43;;;12.23;;
12625;SDS011;6378;42.684;23.372;2023-03-13T08:11:25;17.80;;;12.70;;
12625;SDS011;6378;42.684;23.372;2023-03-13T08:13:52;17.77;;;12.90;;
12625;SDS011;6378;42.684;23.372;2023-03-13T08:16:21;15.93;;;12.43;;
12625;SDS011;6378;42.684;23.372;2023-03-13T08:18:52;15.73;;;12.23;;
12625;SDS011;6378;42.684;23.372;2023-03-13T08:21:20;16.47;;;12.57;;
12625;SDS011;6378;42.684;23.372;2023-03-13T08:24:01;15.97;;;12.60;;
12625;SDS011;6378;42.684;23.372;2023-03-13T08:26:31;15.87;;;11.67;;
12625;SDS011;6378;42.684;23.372;2023-03-13T08:28:58;17.67;;;12.67;;
12625;SDS011;6378;42.684;23.372;2023-03-13T08:31:33;16.47;;;12.43;;
12625;SDS011;6378;42.684;23.372;2023-03-13T08:33:59;14.97;;;12.00;;
12625;SDS011;6378;42.684;23.372;2023-03-13T08:36:26;16.43;;;12.27;;
12625;SDS011;6378;42.684;23.372;2023-03-13T08:42:24;16.33;;;11.90;;
12625;SDS011;6378;42.684;23.372;2023-03-13T08:47:58;13.20;;;11.17;;
12625;SDS011;6378;42.684;23.372;2023-03-13T08:50:24;15.50;;;12.47;;
12625;SDS011;6378;42.684;23.372;2023-03-13T08:52:50;16.13;;;12.47;;
12625;SDS011;6378;42.684;23.372;2023-03-13T08:55:15;15.83;;;12.50;;
12625;SDS011;6378;42.684;23.372;2023-03-13T08:57:41;18.93;;;12.00;;
12625;SDS011;6378;42.684;23.372;2023-03-13T09:00:06;15.63;;;11.73;;
12625;SDS011;6378;42.684;23.372;2023-03-13T09:02:32;17.37;;;12.57;;
12625;SDS011;6378;42.684;23.372;2023-03-13T09:04:58;24.27;;;17.50;;
12625;SDS011;6378;42.684;23.372;2023-03-13T09:07:23;15.37;;;12.47;;
12625;SDS011;6378;42.684;23.372;2023-03-13T09:09:48;20.00;;;12.57;;
12625;SDS011;6378;42.684;23.372;2023-03-13T09:12:14;15.93;;;11.77;;
12625;SDS011;6378;42.684;23.372;2023-03-13T09:14:39;12.53;;;11.13;;
12625;SDS011;6378;42.684;23.372;2023-03-13T09:17:05;15.03;;;13.03;;
12625;SDS011;6378;42.684;23.372;2023-03-13T09:19:30;14.33;;;11.50;;
12625;SDS011;6378;42.684;23.372;2023-03-13T09:21:56;14.60;;;11.43;;
12625;SDS011;6378;42.684;23.372;2023-03-13T09:24:21;13.27;;;11.17;;
12625;SDS011;6378;42.684;23.372;2023-03-13T09:26:47;12.70;;;11.00;;
12625;SDS011;6378;42.684;23.372;2023-03-13T09:29:12;24.63;;;12.70;;
12625;SDS011;6378;42.684;23.372;2023-03-13T09:31:37;14.00;;;11.47;;
12625;SDS011;6378;42.684;23.372;2023-03-13T09:34:05;18.10;;;11.47;;
12625;SDS011;6378;42.684;23.372;2023-03-13T09:36:30;15.17;;;12.07;;
12625;SDS011;6378;42.684;23.372;2023-03-13T09:38:56;14.97;;;11.60;;
12625;SDS011;6378;42.684;23.372;2023-03-13T09:41:31;19.27;;;13.17;;
12625;SDS011;6378;42.684;23.372;2023-03-13T09:46:30;17.13;;;11.57;;
12625;SDS011;6378;42.684;23.372;2023-03-13T09:49:08;16.07;;;11.97;;
12625;SDS011;6378;42.684;23.372;2023-03-13T09:51:38;17.07;;;12.30;;
12625;SDS011;6378;42.684;23.372;2023-03-13T09:59:44;14.53;;;12.40;;
12625;SDS011;6378;42.684;23.372;2023-03-13T10:05:02;16.83;;;12.60;;
12625;SDS011;6378;42.684;23.372;2023-03-13T10:07:29;15.27;;;11.90;;
12625;SDS011;6378;42.684;23.372;2023-03-13T10:09:54;17.70;;;13.23;;
12625;SDS011;6378;42.684;23.372;2023-03-13T10:12:22;32.43;;;23.93;;
12625;SDS011;6378;42.684;23.372;2023-03-13T10:17:36;18.47;;;12.97;;
12625;SDS011;6378;42.684;23.372;2023-03-13T10:20:23;16.50;;;11.87;;
12625;SDS011;6378;42.684;23.372;2023-03-13T10:25:36;14.30;;;11.77;;
12625;SDS011;6378;42.684;23.372;2023-03-13T10:28:03;21.90;;;12.27;;
12625;SDS011;6378;42.684;23.372;2023-03-13T10:30:30;16.40;;;12.73;;
12625;SDS011;6378;42.684;23.372;2023-03-13T10:33:16;21.90;;;12.17;;
12625;SDS011;6378;42.684;23.372;2023-03-13T10:35:44;16.83;;;13.47;;
12625;SDS011;6378;42.684;23.372;2023-03-13T10:38:13;12.93;;;11.30;;
12625;SDS011;6378;42.684;23.372;2023-03-13T10:40:41;14.13;;;12.00;;
12625;SDS011;6378;42.684;23.372;2023-03-13T10:43:17;17.27;;;12.50;;
12625;SDS011;6378;42.684;23.372;2023-03-13T10:45:44;15.00;;;11.83;;
12625;SDS011;6378;42.684;23.372;2023-03-13T10:48:14;16.73;;;12.40;;
12625;SDS011;6378;42.684;23.372;2023-03-13T10:50:44;14.53;;;12.00;;
12625;SDS011;6378;42.684;23.372;2023-03-13T10:53:25;15.87;;;12.23;;
12625;SDS011;6378;42.684;23.372;2023-03-13T10:56:08;17.43;;;12.20;;
12625;SDS011;6378;42.684;23.372;2023-03-13T11:01:17;17.10;;;12.20;;
12625;SDS011;6378;42.684;23.372;2023-03-13T11:03:53;13.97;;;11.10;;
12625;SDS011;6378;42.684;23.372;2023-03-13T11:08:58;14.20;;;11.70;;
12625;SDS011;6378;42.684;23.372;2023-03-13T11:11:23;12.90;;;11.30;;
12625;SDS011;6378;42.684;23.372;2023-03-13T11:13:54;15.10;;;11.83;;
12625;SDS011;6378;42.684;23.372;2023-03-13T11:16:30;13.90;;;11.47;;
12625;SDS011;6378;42.684;23.372;2023-03-13T11:27:20;12.57;;;9.93;;
12625;SDS011;6378;42.684;23.372;2023-03-13T11:32:29;12.33;;;9.83;;
12625;SDS011;6378;42.684;23.372;2023-03-13T11:35:03;11.17;;;9.60;;
12625;SDS011;6378;42.684;23.372;2023-03-13T11:37:39;12.60;;;9.90;;
12625;SDS011;6378;42.684;23.372;2023-03-13T11:40:19;13.30;;;9.53;;
12625;SDS011;6378;42.684;23.372;2023-03-13T11:43:02;18.37;;;9.87;;
12625;SDS011;6378;42.684;23.372;2023-03-13T12:01:52;12.57;;;10.40;;
12625;SDS011;6378;42.684;23.372;2023-03-13T12:04:26;19.67;;;14.17;;
12625;SDS011;6378;42.684;23.372;2023-03-13T12:09:52;13.55;;;10.77;;
12625;SDS011;6378;42.684;23.372;2023-03-13T12:17:59;12.48;;;10.48;;
12625;SDS011;6378;42.684;23.372;2023-03-13T12:28:40;11.68;;;10.02;;
12625;SDS011;6378;42.684;23.372;2023-03-13T12:31:17;12.93;;;10.07;;
12625;SDS011;6378;42.684;23.372;2023-03-13T12:36:56;12.23;;;10.80;;
12625;SDS011;6378;42.684;23.372;2023-03-13T12:39:41;12.82;;;10.70;;
12625;SDS011;6378;42.684;23.372;2023-03-13T12:42:35;12.63;;;10.48;;
12625;SDS011;6378;42.684;23.372;2023-03-13T12:45:13;13.93;;;11.82;;
12625;SDS011;6378;42.684;23.372;2023-03-13T12:50:18;15.60;;;10.73;;
12625;SDS011;6378;42.684;23.372;2023-03-13T13:01:04;15.00;;;11.35;;
12625;SDS011;6378;42.684;23.372;2023-03-13T13:03:35;17.38;;;10.98;;
12625;SDS011;6378;42.684;23.372;2023-03-13T13:08:34;14.95;;;11.48;;
12625;SDS011;6378;42.684;23.372;2023-03-13T13:11:33;15.90;;;11.55;;
12625;SDS011;6378;42.684;23.372;2023-03-13T13:16:43;15.68;;;11.15;;
12625;SDS011;6378;42.684;23.372;2023-03-13T13:22:30;15.53;;;12.73;;
12625;SDS011;6378;42.684;23.372;2023-03-13T13:24:51;13.70;;;12.30;;
12625;SDS011;6378;42.684;23.372;2023-03-13T13:29:55;17.23;;;13.68;;
12625;SDS011;6378;42.684;23.372;2023-03-13T13:32:32;17.67;;;13.65;;
12625;SDS011;6378;42.684;23.372;2023-03-13T13:35:02;19.35;;;15.20;;
12625;SDS011;6378;42.684;23.372;2023-03-13T13:37:37;14.13;;;11.63;;
12625;SDS011;6378;42.684;23.372;2023-03-13T13:40:17;15.25;;;13.27;;
12625;SDS011;6378;42.684;23.372;2023-03-13T13:47:41;18.02;;;12.95;;
12625;SDS011;6378;42.684;23.372;2023-03-13T13:50:19;18.50;;;13.40;;
12625;SDS011;6378;42.684;23.372;2023-03-13T13:52:47;15.60;;;12.55;;
12625;SDS011;6378;42.684;23.372;2023-03-13T14:00:53;16.00;;;12.15;;
12625;SDS011;6378;42.684;23.372;2023-03-13T14:03:24;17.67;;;12.97;;
12625;SDS011;6378;42.684;23.372;2023-03-13T14:05:53;17.33;;;12.98;;
12625;SDS011;6378;42.684;23.372;2023-03-13T14:08:23;17.45;;;14.23;;
12625;SDS011;6378;42.684;23.372;2023-03-13T14:11:03;15.03;;;12.83;;
12625;SDS011;6378;42.684;23.372;2023-03-13T14:13:31;17.27;;;13.05;;
12625;SDS011;6378;42.684;23.372;2023-03-13T14:15:57;18.40;;;13.68;;
12625;SDS011;6378;42.684;23.372;2023-03-13T14:18:44;17.58;;;12.75;;
12625;SDS011;6378;42.684;23.372;2023-03-13T14:21:10;16.17;;;12.55;;
12625;SDS011;6378;42.684;23.372;2023-03-13T14:26:21;20.77;;;13.20;;
12625;SDS011;6378;42.684;23.372;2023-03-13T14:28:48;18.50;;;12.73;;
12625;SDS011;6378;42.684;23.372;2023-03-13T14:31:27;18.27;;;12.38;;
12625;SDS011;6378;42.684;23.372;2023-03-13T14:33:56;19.02;;;13.30;;
12625;SDS011;6378;42.684;23.372;2023-03-13T14:36:23;15.43;;;12.50;;
12625;SDS011;6378;42.684;23.372;2023-03-13T14:38:58;16.10;;;12.80;;
12625;SDS011;6378;42.684;23.372;2023-03-13T14:43:59;17.58;;;12.32;;
12625;SDS011;6378;42.684;23.372;2023-03-13T14:46:31;18.40;;;13.10;;
12625;SDS011;6378;42.684;23.372;2023-03-13T14:49:06;17.75;;;12.77;;
12625;SDS011;6378;42.684;23.372;2023-03-13T14:51:38;17.75;;;13.55;;
12625;SDS011;6378;42.684;23.372;2023-03-13T14:54:04;15.80;;;12.93;;
12625;SDS011;6378;42.684;23.372;2023-03-13T14:56:33;19.92;;;13.02;;
12625;SDS011;6378;42.684;23.372;2023-03-13T15:02:19;18.30;;;13.82;;
12625;SDS011;6378;42.684;23.372;2023-03-13T15:04:51;16.70;;;13.52;;
12625;SDS011;6378;42.684;23.372;2023-03-13T15:07:17;15.50;;;12.02;;
12625;SDS011;6378;42.684;23.372;2023-03-13T15:09:44;16.70;;;12.88;;
12625;SDS011;6378;42.684;23.372;2023-03-13T15:12:15;14.65;;;11.95;;
12625;SDS011;6378;42.684;23.372;2023-03-13T15:14:44;18.15;;;12.98;;
12625;SDS011;6378;42.684;23.372;2023-03-13T15:17:21;17.95;;;13.48;;
12625;SDS011;6378;42.684;23.372;2023-03-13T15:19:49;16.70;;;12.80;;
12625;SDS011;6378;42.684;23.372;2023-03-13T15:22:40;19.50;;;12.83;;
12625;SDS011;6378;42.684;23.372;2023-03-13T15:25:17;15.68;;;12.32;;
12625;SDS011;6378;42.684;23.372;2023-03-13T15:27:45;16.60;;;12.38;;
12625;SDS011;6378;42.684;23.372;2023-03-13T15:30:17;17.30;;;12.70;;
12625;SDS011;6378;42.684;23.372;2023-03-13T15:32:47;16.90;;;11.98;;
12625;SDS011;6378;42.684;23.372;2023-03-13T15:35:27;18.50;;;12.87;;
12625;SDS011;6378;42.684;23.372;2023-03-13T15:37:57;19.47;;;12.60;;
12625;SDS011;6378;42.684;23.372;2023-03-13T15:40:24;15.95;;;13.00;;
12625;SDS011;6378;42.684;23.372;2023-03-13T15:42:51;19.27;;;12.13;;
12625;SDS011;6378;42.684;23.372;2023-03-13T15:45:17;15.83;;;12.03;;
12625;SDS011;6378;42.684;23.372;2023-03-13T15:47:43;17.30;;;12.40;;
12625;SDS011;6378;42.684;23.372;2023-03-13T15:50:12;18.10;;;13.63;;
12625;SDS011;6378;42.684;23.372;2023-03-13T15:52:39;17.35;;;12.75;;
12625;SDS011;6378;42.684;23.372;2023-03-13T15:55:05;15.23;;;11.88;;
12625;SDS011;6378;42.684;23.372;2023-03-13T15:57:32;21.20;;;12.15;;
12625;SDS011;6378;42.684;23.372;2023-03-13T16:00:00;14.60;;;11.85;;
12625;SDS011;6378;42.684;23.372;2023-03-13T16:02:26;16.70;;;11.32;;
12625;SDS011;6378;42.684;23.372;2023-03-13T16:04:51;15.77;;;11.63;;
12625;SDS011;6378;42.684;23.372;2023-03-13T16:07:17;14.80;;;11.43;;
12625;SDS011;6378;42.684;23.372;2023-03-13T16:09:45;18.10;;;11.63;;
12625;SDS011;6378;42.684;23.372;2023-03-13T16:12:11;19.10;;;11.90;;
12625;SDS011;6378;42.684;23.372;2023-03-13T16:14:37;16.27;;;11.70;;
12625;SDS011;6378;42.684;23.372;2023-03-13T16:17:09;17.15;;;13.10;;
12625;SDS011;6378;42.684;23.372;2023-03-13T16:19:37;17.45;;;11.77;;
12625;SDS011;6378;42.684;23.372;2023-03-13T16:22:03;22.67;;;13.10;;
12625;SDS011;6378;42.684;23.372;2023-03-13T16:24:28;18.30;;;12.10;;
12625;SDS011;6378;42.684;23.372;2023-03-13T16:26:55;19.87;;;12.60;;
12625;SDS011;6378;42.684;23.372;2023-03-13T16:29:20;20.43;;;15.10;;
12625;SDS011;6378;42.684;23.372;2023-03-13T16:31:46;21.20;;;15.10;;
12625;SDS011;6378;42.684;23.372;2023-03-13T16:34:11;25.13;;;16.27;;
12625;SDS011;6378;42.684;23.372;2023-03-13T16:36:37;31.00;;;19.53;;
12625;SDS011;6378;42.684;23.372;2023-03-13T16:39:03;35.10;;;20.80;;
12625;SDS011;6378;42.684;23.372;2023-03-13T16:41:32;36.73;;;21.33;;
12625;SDS011;6378;42.684;23.372;2023-03-13T16:43:57;27.73;;;20.53;;